createdAt,value
2022-10-17T00:01:07.622Z,100628.91
2022-10-17T00:03:38.072Z,100627.88
2022-10-17T00:06:09.018Z,100625.91
2022-10-17T00:08:38.239Z,100627.14
2022-10-17T00:11:09.057Z,100626.45
2022-10-17T00:13:37.460Z,100626.91
2022-10-17T00:16:07.533Z,100629.13
2022-10-17T00:18:36.032Z,100630.99
2022-10-17T00:21:04.904Z,100638.20
2022-10-17T00:23:33.735Z,100648.08
2022-10-17T00:26:05.151Z,100648.25
2022-10-17T00:28:33.635Z,100648.16
2022-10-17T00:31:04.242Z,100650.02
2022-10-17T00:33:33.917Z,100642.14
2022-10-17T00:36:07.685Z,100643.60
2022-10-17T00:38:37.454Z,100648.34
2022-10-17T00:41:08.887Z,100649.62
2022-10-17T00:43:52.566Z,100647.70
2022-10-17T00:46:22.606Z,100647.20
2022-10-17T00:48:54.221Z,100638.73
2022-10-17T00:51:29.355Z,100630.58
2022-10-17T00:53:57.968Z,100625.24
2022-10-17T00:56:27.308Z,100631.02
2022-10-17T00:58:55.988Z,100635.28
2022-10-17T01:01:24.482Z,100634.70
2022-10-17T01:03:52.873Z,100639.64
2022-10-17T01:06:21.431Z,100639.55
2022-10-17T01:08:49.815Z,100633.85
2022-10-17T01:11:28.592Z,100629.11
2022-10-17T01:14:06.029Z,100631.52
2022-10-17T01:16:44.283Z,100636.10
2022-10-17T01:19:34.165Z,100630.83
2022-10-17T01:22:09.566Z,100627.04
2022-10-17T01:24:48.785Z,100623.08
2022-10-17T01:27:48.343Z,100623.32
2022-10-17T01:30:51.906Z,100624.01
2022-10-17T01:33:32.414Z,100625.80
2022-10-17T01:36:10.037Z,100629.29
2022-10-17T01:38:46.531Z,100636.42
2022-10-17T01:41:25.110Z,100641.45
2022-10-17T01:43:59.498Z,100640.77
2022-10-17T01:46:32.448Z,100645.14
2022-10-17T01:49:02.499Z,100642.17
2022-10-17T01:51:35.777Z,100639.08
2022-10-17T01:54:11.180Z,100641.05
2022-10-17T01:56:41.675Z,100637.99
2022-10-17T01:59:16.334Z,100637.92
2022-10-17T02:01:49.188Z,100637.70
2022-10-17T02:04:18.660Z,100636.33
2022-10-17T02:06:47.020Z,100641.05
2022-10-17T02:09:19.417Z,100642.96
2022-10-17T02:11:57.455Z,100651.10
2022-10-17T02:14:39.441Z,100644.98
2022-10-17T02:17:15.204Z,100645.91
2022-10-17T02:19:55.185Z,100642.53
2022-10-17T02:22:36.786Z,100637.59
2022-10-17T02:25:13.694Z,100640.71
2022-10-17T02:27:50.488Z,100648.46
2022-10-17T02:30:28.070Z,100647.56
2022-10-17T02:33:01.223Z,100651.98
2022-10-17T02:35:35.463Z,100658.27
2022-10-17T02:38:05.125Z,100660.14
2022-10-17T02:40:34.398Z,100666.02
2022-10-17T02:43:02.875Z,100665.81
2022-10-17T02:45:35.351Z,100667.67
2022-10-17T02:48:10.701Z,100667.79
2022-10-17T02:50:48.825Z,100670.90
2022-10-17T02:53:33.871Z,100667.56
2022-10-17T02:56:08.614Z,100663.59
2022-10-17T02:58:39.312Z,100663.06
2022-10-17T03:01:08.108Z,100669.38
2022-10-17T03:03:36.720Z,100664.63
2022-10-17T03:06:05.496Z,100667.62
2022-10-17T03:08:34.045Z,100668.71
2022-10-17T03:11:02.620Z,100671.45
2022-10-17T03:13:33.816Z,100671.45
2022-10-17T03:16:05.637Z,100670.98
2022-10-17T03:18:34.597Z,100669.24
2022-10-17T03:21:04.350Z,100669.63
2022-10-17T03:23:32.909Z,100667.02
2022-10-17T03:26:04.210Z,100661.70
2022-10-17T03:28:33.071Z,100663.00
2022-10-17T03:31:07.198Z,100662.45
2022-10-17T03:33:36.350Z,100666.51
2022-10-17T03:36:09.401Z,100668.53
2022-10-17T03:38:39.323Z,100671.64
2022-10-17T03:41:08.452Z,100672.77
2022-10-17T03:43:37.480Z,100680.50
2022-10-17T03:46:08.682Z,100683.09
2022-10-17T03:48:38.731Z,100685.30
2022-10-17T03:51:09.968Z,100683.91
2022-10-17T03:53:52.097Z,100685.23
2022-10-17T03:56:22.739Z,100688.34
2022-10-17T03:59:12.139Z,100691.61
2022-10-17T04:01:40.926Z,100697.33
2022-10-17T04:04:09.758Z,100698.83
2022-10-17T04:06:39.303Z,100700.61
2022-10-17T04:09:07.799Z,100706.06
2022-10-17T04:11:48.941Z,100708.24
2022-10-17T04:14:18.125Z,100708.16
2022-10-17T04:16:48.007Z,100712.13
2022-10-17T04:19:25.929Z,100711.08
2022-10-17T04:21:57.899Z,100710.66
2022-10-17T04:24:30.246Z,100711.56
2022-10-17T04:27:11.283Z,100716.39
2022-10-17T04:29:46.078Z,100718.56
2022-10-17T04:32:25.759Z,100718.91
2022-10-17T04:35:11.649Z,100721.25
2022-10-17T04:37:44.870Z,100723.38
2022-10-17T04:40:21.858Z,100727.85
2022-10-17T04:42:54.007Z,100730.06
2022-10-17T04:45:27.583Z,100731.19
2022-10-17T04:48:05.600Z,100733.55
2022-10-17T04:50:38.160Z,100731.63
2022-10-17T04:53:32.063Z,100736.14
2022-10-17T04:56:08.586Z,100737.52
2022-10-17T04:58:41.110Z,100735.61
2022-10-17T05:01:15.435Z,100734.56
2022-10-17T05:03:48.327Z,100733.34
2022-10-17T05:06:22.237Z,100727.44
2022-10-17T05:09:08.652Z,100726.12
2022-10-17T05:11:39.908Z,100725.95
2022-10-17T05:14:12.349Z,100726.33
2022-10-17T05:16:44.668Z,100725.86
2022-10-17T05:19:17.272Z,100725.44
2022-10-17T05:21:51.473Z,100728.73
2022-10-17T05:24:23.594Z,100733.15
2022-10-17T05:26:55.960Z,100738.30
2022-10-17T05:29:28.171Z,100736.02
2022-10-17T05:32:07.818Z,100738.17
2022-10-17T05:34:40.118Z,100740.48
2022-10-17T05:37:12.153Z,100742.06
2022-10-17T05:39:46.823Z,100744.02
2022-10-17T05:42:23.380Z,100744.30
2022-10-17T05:44:55.525Z,100740.64
2022-10-17T05:47:28.077Z,100745.05
2022-10-17T05:50:00.537Z,100751.85
2022-10-17T05:52:38.289Z,100752.95
2022-10-17T05:55:14.590Z,100755.80
2022-10-17T05:57:46.760Z,100755.48
2022-10-17T06:00:21.949Z,100760.14
2022-10-17T06:03:00.489Z,100754.56
2022-10-17T06:05:32.621Z,100753.62
2022-10-17T06:08:03.172Z,100754.65
2022-10-17T06:10:39.487Z,100753.23
2022-10-17T06:13:11.388Z,100754.98
2022-10-17T06:15:47.890Z,100758.83
2022-10-17T06:18:20.790Z,100764.91
2022-10-17T06:20:53.184Z,100762.23
2022-10-17T06:23:25.796Z,100765.62
2022-10-17T06:26:06.830Z,100765.54
2022-10-17T06:28:39.317Z,100771.27
2022-10-17T06:31:12.769Z,100776.08
2022-10-17T06:33:45.658Z,100773.78
2022-10-17T06:36:19.336Z,100781.27
2022-10-17T06:38:51.971Z,100787.48
2022-10-17T06:41:33.760Z,100785.79
2022-10-17T06:44:11.330Z,100784.27
2022-10-17T06:47:03.001Z,100784.65
2022-10-17T06:49:35.259Z,100788.39
2022-10-17T06:52:39.508Z,100795.84
2022-10-17T06:55:39.901Z,100797.77
2022-10-17T06:58:27.867Z,100800.92
2022-10-17T07:01:10.267Z,100804.65
2022-10-17T07:03:43.705Z,100810.02
2022-10-17T07:06:18.038Z,100811.60
2022-10-17T07:08:50.498Z,100816.65
2022-10-17T07:11:24.098Z,100813.42
2022-10-17T07:13:57.156Z,100812.66
2022-10-17T07:16:29.263Z,100815.84
2022-10-17T07:19:17.629Z,100814.29
2022-10-17T07:21:49.958Z,100812.13
2022-10-17T07:24:21.853Z,100817.89
2022-10-17T07:26:59.342Z,100821.67
2022-10-17T07:29:31.599Z,100823.98
2022-10-17T07:32:10.720Z,100827.02
2022-10-17T07:34:42.563Z,100829.78
2022-10-17T07:37:15.572Z,100837.35
2022-10-17T07:39:53.192Z,100836.77
2022-10-17T07:42:25.481Z,100845.87
2022-10-17T07:44:58.798Z,100841.14
2022-10-17T07:47:35.675Z,100841.34
2022-10-17T07:50:10.104Z,100847.04
2022-10-17T07:52:43.301Z,100848.02
2022-10-17T07:55:15.165Z,100847.01
2022-10-17T07:57:47.188Z,100853.27
2022-10-17T08:00:19.425Z,100854.67
2022-10-17T08:02:51.461Z,100853.25
2022-10-17T08:05:23.505Z,100849.92
2022-10-17T08:07:56.091Z,100846.80
2022-10-17T08:10:29.720Z,100849.70
2022-10-17T08:13:03.664Z,100851.34
2022-10-17T08:15:35.627Z,100852.08
2022-10-17T08:18:07.686Z,100851.77
2022-10-17T08:20:39.610Z,100850.12
2022-10-17T08:23:11.914Z,100850.19
2022-10-17T08:25:43.745Z,100847.35
2022-10-17T08:28:18.427Z,100847.45
2022-10-17T08:30:50.430Z,100846.39
2022-10-17T08:33:22.367Z,100846.41
2022-10-17T08:35:54.208Z,100841.04
2022-10-17T08:38:27.780Z,100840.99
2022-10-17T08:41:01.754Z,100840.10
2022-10-17T08:43:45.342Z,100843.77
2022-10-17T08:46:17.755Z,100841.52
2022-10-17T08:48:51.648Z,100842.92
2022-10-17T08:51:28.706Z,100843.95
2022-10-17T08:54:07.781Z,100845.92
2022-10-17T08:56:48.799Z,100844.66
2022-10-17T08:59:21.238Z,100843.13
2022-10-17T09:01:56.800Z,100840.88
2022-10-17T09:04:47.317Z,100836.19
2022-10-17T09:07:27.449Z,100837.88
2022-10-17T09:10:06.070Z,100840.55
2022-10-17T09:12:45.162Z,100832.27
2022-10-17T09:15:38.680Z,100833.45
2022-10-17T09:18:18.695Z,100835.77
2022-10-17T09:20:55.785Z,100837.38
2022-10-17T09:23:31.312Z,100834.96
2022-10-17T09:26:04.031Z,100834.45
2022-10-17T09:28:38.847Z,100838.72
2022-10-17T09:31:17.826Z,100839.73
2022-10-17T09:33:54.629Z,100838.59
2022-10-17T09:36:29.865Z,100837.95
2022-10-17T09:39:03.575Z,100835.85
2022-10-17T09:41:47.396Z,100834.70
2022-10-17T09:44:23.276Z,100839.31
2022-10-17T09:47:07.336Z,100843.11
2022-10-17T09:49:41.168Z,100845.88
2022-10-17T09:52:18.492Z,100844.35
2022-10-17T09:54:52.630Z,100842.86
2022-10-17T09:57:25.537Z,100844.14
2022-10-17T10:00:02.900Z,100840.23
2022-10-17T10:02:40.793Z,100832.24
2022-10-17T10:05:21.882Z,100835.20
2022-10-17T10:08:06.538Z,100836.54
2022-10-17T10:10:39.223Z,100838.91
2022-10-17T10:13:21.299Z,100840.25
2022-10-17T10:15:54.146Z,100841.51
2022-10-17T10:18:36.777Z,100841.38
2022-10-17T10:21:12.907Z,100843.70
2022-10-17T10:23:46.168Z,100843.02
2022-10-17T10:26:27.456Z,100843.17
2022-10-17T10:29:02.967Z,100838.98
2022-10-17T10:31:40.946Z,100836.42
2022-10-17T10:34:21.458Z,100828.19
2022-10-17T10:36:58.793Z,100829.05
2022-10-17T10:39:41.240Z,100824.98
2022-10-17T10:42:28.581Z,100825.03
2022-10-17T10:45:03.449Z,100822.17
2022-10-17T10:47:35.587Z,100823.27
2022-10-17T10:50:23.767Z,100820.95
2022-10-17T10:53:14.639Z,100818.44
2022-10-17T10:55:51.849Z,100813.73
2022-10-17T10:58:42.146Z,100809.52
2022-10-17T11:01:23.108Z,100808.61
2022-10-17T11:04:06.269Z,100800.05
2022-10-17T11:06:42.277Z,100800.17
2022-10-17T11:09:24.279Z,100798.82
2022-10-17T11:12:03.773Z,100801.02
2022-10-17T11:14:45.308Z,100794.77
2022-10-17T11:17:29.380Z,100793.79
2022-10-17T11:20:15.180Z,100791.68
2022-10-17T11:22:50.155Z,100791.28
2022-10-17T11:25:32.818Z,100792.42
2022-10-17T11:28:05.969Z,100794.49
2022-10-17T11:33:30.165Z,100791.85
2022-10-17T11:36:06.515Z,100790.29
2022-10-17T11:38:46.834Z,100792.18
2022-10-17T11:41:23.470Z,100786.02
2022-10-17T11:43:59.290Z,100790.23
2022-10-17T11:46:31.638Z,100785.16
2022-10-17T11:49:16.199Z,100786.09
2022-10-17T11:52:02.601Z,100787.06
2022-10-17T11:54:41.083Z,100781.64
2022-10-17T11:57:37.451Z,100782.99
2022-10-17T12:00:26.165Z,100782.86
2022-10-17T12:03:08.343Z,100785.42
2022-10-17T12:05:46.529Z,100785.23
2022-10-17T12:08:29.135Z,100781.46
2022-10-17T12:11:08.533Z,100784.48
2022-10-17T12:13:56.321Z,100779.66
2022-10-17T12:16:45.995Z,100780.30
2022-10-17T12:19:28.738Z,100778.09
2022-10-17T12:22:04.443Z,100776.08
2022-10-17T12:24:45.871Z,100769.98
2022-10-17T12:27:36.997Z,100772.94
2022-10-17T12:30:19.119Z,100767.09
2022-10-17T12:33:06.082Z,100767.33
2022-10-17T12:35:41.024Z,100769.72
2022-10-17T12:38:23.518Z,100761.95
2022-10-17T12:41:00.816Z,100763.90
2022-10-17T12:43:53.302Z,100756.81
2022-10-17T12:47:00.502Z,100756.40
2022-10-17T12:49:46.547Z,100755.80
2022-10-17T12:52:27.464Z,100753.99
2022-10-17T12:55:14.089Z,100750.05
2022-10-17T12:57:58.644Z,100750.52
2022-10-17T13:00:38.309Z,100750.45
2022-10-17T13:03:16.742Z,100746.78
2022-10-17T13:05:52.633Z,100745.80
2022-10-17T13:08:29.728Z,100743.80
2022-10-17T13:11:02.926Z,100745.01
2022-10-17T13:13:42.484Z,100747.83
2022-10-17T13:16:30.667Z,100746.09
2022-10-17T13:19:05.393Z,100750.02
2022-10-17T13:21:37.604Z,100748.06
2022-10-17T13:24:24.166Z,100744.49
2022-10-17T13:26:56.210Z,100746.58
2022-10-17T13:29:29.854Z,100745.27
2022-10-17T13:32:04.995Z,100748.11
2022-10-17T13:34:36.884Z,100741.49
2022-10-17T13:37:12.501Z,100743.81
2022-10-17T13:40:00.309Z,100740.77
2022-10-17T13:42:42.667Z,100738.90
2022-10-17T13:45:26.373Z,100740.06
2022-10-17T13:47:59.319Z,100742.64
2022-10-17T13:50:45.523Z,100747.77
2022-10-17T13:53:26.777Z,100745.81
2022-10-17T13:56:26.240Z,100747.75
2022-10-17T13:58:58.128Z,100750.62
2022-10-17T14:01:32.216Z,100747.13
2022-10-17T14:04:10.412Z,100745.69
2022-10-17T14:06:52.124Z,100742.52
2022-10-17T14:09:28.073Z,100743.36
2022-10-17T14:12:04.649Z,100743.23
2022-10-17T14:14:57.972Z,100738.02
2022-10-17T14:17:31.177Z,100738.27
2022-10-17T14:20:48.220Z,100739.95
2022-10-17T14:23:22.109Z,100739.29
2022-10-17T14:26:07.710Z,100742.57
2022-10-17T14:28:41.183Z,100739.02
2022-10-17T14:31:21.272Z,100742.91
2022-10-17T14:33:55.683Z,100741.36
2022-10-17T14:36:42.095Z,100741.91
2022-10-17T14:39:33.953Z,100745.92
2022-10-17T14:42:22.449Z,100747.86
2022-10-17T14:45:15.102Z,100746.95
2022-10-17T14:48:01.901Z,100745.55
2022-10-17T14:51:09.976Z,100748.77
2022-10-17T14:54:06.913Z,100743.16
2022-10-17T14:56:43.761Z,100741.27
2022-10-17T14:59:30.154Z,100742.71
2022-10-17T15:02:11.501Z,100740.86
2022-10-17T15:04:43.656Z,100740.62
2022-10-17T15:07:18.551Z,100741.84
2022-10-17T15:09:52.347Z,100737.16
2022-10-17T15:12:26.506Z,100738.24
2022-10-17T15:14:58.345Z,100739.48
2022-10-17T15:17:37.606Z,100740.70
2022-10-17T15:20:15.909Z,100736.75
2022-10-17T15:22:48.174Z,100732.16
2022-10-17T15:25:20.203Z,100728.73
2022-10-17T15:27:52.089Z,100720.67
2022-10-17T15:30:27.414Z,100720.82
2022-10-17T15:32:59.612Z,100721.31
2022-10-17T15:35:31.955Z,100720.73
2022-10-17T15:38:04.010Z,100719.45
2022-10-17T15:40:36.075Z,100720.08
2022-10-17T15:43:07.915Z,100721.15
2022-10-17T15:45:38.181Z,100722.69
2022-10-17T15:48:16.456Z,100730.10
2022-10-17T15:50:48.347Z,100732.73
2022-10-17T15:53:18.630Z,100737.17
2022-10-17T15:55:51.175Z,100743.56
2022-10-17T15:58:23.310Z,100747.77
2022-10-17T16:00:55.594Z,100747.60
2022-10-17T16:03:30.271Z,100742.36
2022-10-17T16:06:02.425Z,100738.05
2022-10-17T16:08:35.557Z,100738.05
2022-10-17T16:11:07.689Z,100739.45
2022-10-17T16:13:42.003Z,100740.73
2022-10-17T16:16:14.344Z,100737.21
2022-10-17T16:18:46.353Z,100732.86
2022-10-17T16:21:20.430Z,100735.23
2022-10-17T16:23:52.381Z,100735.74
2022-10-17T16:26:24.325Z,100739.39
2022-10-17T16:28:55.314Z,100735.96
2022-10-17T16:31:29.541Z,100731.94
2022-10-17T16:34:03.230Z,100732.30
2022-10-17T16:36:35.720Z,100733.35
2022-10-17T16:39:08.101Z,100740.08
2022-10-17T16:41:40.853Z,100739.10
2022-10-17T16:44:16.496Z,100743.77
2022-10-17T16:46:48.586Z,100744.61
2022-10-17T16:49:20.376Z,100746.83
2022-10-17T16:51:52.223Z,100750.30
2022-10-17T16:54:24.159Z,100750.04
2022-10-17T16:56:54.603Z,100746.89
2022-10-17T16:59:27.193Z,100746.12
2022-10-17T17:01:58.997Z,100747.16
2022-10-17T17:04:29.632Z,100749.20
2022-10-17T17:07:01.509Z,100747.39
2022-10-17T17:09:31.822Z,100746.38
2022-10-17T17:12:03.902Z,100748.88
2022-10-17T17:14:36.238Z,100749.83
2022-10-17T17:17:15.348Z,100751.88
2022-10-17T17:20:23.549Z,100748.61
2022-10-17T17:23:06.020Z,100751.30
2022-10-17T17:25:43.474Z,100746.40
2022-10-17T17:28:18.739Z,100749.72
2022-10-17T17:30:55.846Z,100750.31
2022-10-17T17:33:42.791Z,100748.02
2022-10-17T17:36:30.868Z,100746.86
2022-10-17T17:39:12.445Z,100746.21
2022-10-17T17:42:01.799Z,100749.73
2022-10-17T17:44:45.126Z,100749.52
2022-10-17T17:47:21.654Z,100747.61
2022-10-17T17:50:08.937Z,100745.46
2022-10-17T17:52:45.587Z,100743.92
2022-10-17T17:55:41.857Z,100748.65
2022-10-17T17:58:19.072Z,100748.45
2022-10-17T18:00:53.355Z,100740.91
2022-10-17T18:03:33.109Z,100736.62
2022-10-17T18:06:18.555Z,100739.33
2022-10-17T18:08:58.104Z,100737.34
2022-10-17T18:11:36.593Z,100738.05
2022-10-17T18:14:13.613Z,100737.68
2022-10-17T18:16:46.894Z,100737.31
2022-10-17T18:19:19.599Z,100739.74
2022-10-17T18:21:52.391Z,100736.92
2022-10-17T18:24:27.772Z,100738.84
2022-10-17T18:27:04.038Z,100737.59
2022-10-17T18:29:39.684Z,100739.63
2022-10-17T18:32:12.590Z,100737.41
2022-10-17T18:34:46.433Z,100734.15
2022-10-17T18:37:19.681Z,100728.63
2022-10-17T18:39:55.310Z,100729.02
2022-10-17T18:42:27.570Z,100732.06
2022-10-17T18:45:17.977Z,100733.83
2022-10-17T18:47:53.830Z,100736.80
2022-10-17T18:50:29.640Z,100732.69
2022-10-17T18:53:03.178Z,100734.50
2022-10-17T18:55:35.540Z,100737.11
2022-10-17T18:58:10.038Z,100734.80
2022-10-17T19:00:44.009Z,100731.22
2022-10-17T19:03:15.873Z,100735.77
2022-10-17T19:05:48.294Z,100729.02
2022-10-17T19:08:21.280Z,100728.17
2022-10-17T19:10:53.602Z,100730.60
2022-10-17T19:13:26.942Z,100730.86
2022-10-17T19:15:59.082Z,100730.34
2022-10-17T19:18:31.225Z,100726.42
2022-10-17T19:21:05.971Z,100723.17
2022-10-17T19:23:39.053Z,100723.39
2022-10-17T19:26:13.224Z,100723.19
2022-10-17T19:28:45.993Z,100728.27
2022-10-17T19:31:22.794Z,100725.95
2022-10-17T19:33:59.433Z,100721.19
2022-10-17T19:36:34.840Z,100719.48
2022-10-17T19:39:12.796Z,100722.41
2022-10-17T19:41:46.597Z,100724.22
2022-10-17T19:44:19.177Z,100726.77
2022-10-17T19:46:51.334Z,100732.13
2022-10-17T19:49:23.244Z,100729.67
2022-10-17T19:51:55.113Z,100730.17
2022-10-17T19:54:28.036Z,100734.23
2022-10-17T19:57:00.353Z,100738.55
2022-10-17T19:59:35.118Z,100735.40
2022-10-17T20:02:09.623Z,100741.17
2022-10-17T20:04:49.756Z,100742.84
2022-10-17T20:07:33.552Z,100741.80
2022-10-17T20:10:06.123Z,100745.25
2022-10-17T20:12:38.098Z,100749.89
2022-10-17T20:15:11.209Z,100749.42
2022-10-17T20:17:43.244Z,100752.08
2022-10-17T20:20:15.429Z,100751.41
2022-10-17T20:22:47.294Z,100756.86
2022-10-17T20:25:19.815Z,100753.33
2022-10-17T20:27:51.806Z,100753.13
2022-10-17T20:30:23.992Z,100752.27
2022-10-17T20:32:56.169Z,100754.27
2022-10-17T20:35:28.170Z,100750.20
2022-10-17T20:37:58.484Z,100749.75
2022-10-17T20:40:35.031Z,100749.61
2022-10-17T20:43:09.407Z,100744.23
2022-10-17T20:45:51.259Z,100739.27
2022-10-17T20:48:24.312Z,100739.99
2022-10-17T20:50:56.652Z,100736.29
2022-10-17T20:53:42.549Z,100738.66
2022-10-17T20:56:20.585Z,100738.98
2022-10-17T20:58:58.385Z,100735.85
2022-10-17T21:01:31.227Z,100733.73
2022-10-17T21:04:27.169Z,100738.56
2022-10-17T21:06:55.681Z,100736.88
2022-10-17T21:09:27.966Z,100737.20
2022-10-17T21:14:38.795Z,100731.86
2022-10-17T21:17:10.893Z,100735.01
2022-10-17T21:19:42.849Z,100737.06
2022-10-17T21:22:14.806Z,100730.83
2022-10-17T21:24:46.773Z,100735.40
2022-10-17T21:27:17.789Z,100733.41
2022-10-17T21:29:50.079Z,100731.16
2022-10-17T21:32:33.595Z,100730.90
2022-10-17T21:35:14.168Z,100735.20
2022-10-17T21:37:45.912Z,100731.27
2022-10-17T21:40:18.551Z,100728.58
2022-10-17T21:42:50.513Z,100727.93
2022-10-17T21:45:25.801Z,100719.92
2022-10-17T21:48:12.564Z,100727.05
2022-10-17T21:50:45.253Z,100724.65
2022-10-17T21:53:15.649Z,100723.48
2022-10-17T21:55:47.525Z,100721.80
2022-10-17T21:58:19.759Z,100720.14
2022-10-17T22:00:51.641Z,100721.49
2022-10-17T22:03:23.722Z,100721.48
2022-10-17T22:06:07.129Z,100718.63
2022-10-17T22:08:48.822Z,100726.48
2022-10-17T22:11:20.311Z,100723.31
2022-10-17T22:13:56.160Z,100724.63
2022-10-17T22:16:28.839Z,100728.14
2022-10-17T22:19:05.842Z,100722.19
2022-10-17T22:21:39.377Z,100719.55
2022-10-17T22:24:14.362Z,100720.09
2022-10-17T22:26:48.570Z,100716.61
2022-10-17T22:29:21.034Z,100718.36
2022-10-17T22:31:52.948Z,100719.00
2022-10-17T22:34:24.873Z,100718.54
2022-10-17T22:36:55.299Z,100717.66
2022-10-17T22:39:27.227Z,100713.73
2022-10-17T22:41:58.002Z,100716.73
2022-10-17T22:44:30.009Z,100716.87
2022-10-17T22:47:00.402Z,100722.73
2022-10-17T22:49:33.257Z,100724.85
2022-10-17T22:52:05.322Z,100728.67
2022-10-17T22:54:37.238Z,100731.50
2022-10-17T22:57:09.236Z,100732.77
2022-10-17T22:59:39.564Z,100732.88
2022-10-17T23:02:11.451Z,100731.86
2022-10-17T23:04:42.736Z,100732.94
2022-10-17T23:07:14.642Z,100729.60
2022-10-17T23:09:44.909Z,100732.77
2022-10-17T23:12:17.092Z,100734.09
2022-10-17T23:14:48.938Z,100737.56
2022-10-17T23:17:20.763Z,100738.37
2022-10-17T23:19:53.012Z,100740.36
2022-10-17T23:22:27.752Z,100739.69
2022-10-17T23:24:59.846Z,100741.48
2022-10-17T23:30:09.191Z,100735.84
2022-10-17T23:32:41.161Z,100732.04
2022-10-17T23:35:14.403Z,100730.98
2022-10-17T23:37:46.913Z,100730.54
2022-10-17T23:40:19.022Z,100736.90
2022-10-17T23:42:51.021Z,100732.08
2022-10-17T23:45:23.295Z,100734.30
2022-10-17T23:47:55.173Z,100738.48
2022-10-17T23:50:25.549Z,100741.05
2022-10-17T23:52:57.494Z,100743.27
2022-10-17T23:55:29.408Z,100744.46
2022-10-17T23:58:01.776Z,100742.39
